• Join FlightAware (Why Join?)
  • Login
  • US Flag 
05:02PM EST


 

Airport Tracker/Info


-or-


 

Live Flight TrackerFlight Track Log ✈ KAP927 ✈ 17-Aug-2013 ✈ KALB - KOGS

Flight Track Log - Related Links

Times and Time Zones

All times are in EDT time to prevent confusion due to time zone crossing. See the KAP927 flight status page for this flight to view local times or setup timezone preferences in your user account.

Time Position Orientation Groundspeed Altitude Reporting Facility
EDT Latitude Longitude Course Direction KTS MPH feet Rate Location/Type
02:38PM 42.7881 -73.8122 353° North 110 127 1,200  Level Boston Center
02:39PM 42.8211 -73.8328 335° Northwest 125 144 1,600 360 Climbing Boston Center
02:40PM 42.8522 -73.8617 326° Northwest 133 153 2,000 420 Climbing Boston Center
02:41PM 42.8831 -73.8853 331° Northwest 127 146 2,600 540 Climbing Boston Center
02:42PM 42.9119 -73.9114 326° Northwest 125 144 3,100 480 Climbing Boston Center
02:43PM 42.9450 -73.9406 327° Northwest 127 146 3,700 600 Climbing Boston Center
02:44PM 42.9697 -73.9611 329° Northwest 125 144 4,300 600 Climbing Boston Center
02:45PM 43.0047 -73.9875 331° Northwest 122 140 5,000 540 Climbing Boston Center
02:46PM 43.0336 -74.0081 333° Northwest 119 137 5,500 480 Climbing Boston Center
02:47PM 43.0644 -74.0344 328° Northwest 122 140 6,000 420 Climbing Boston Center
02:48PM 43.0892 -74.0550 329° Northwest 122 140 6,400 420 Climbing Boston Center
02:49PM 43.1222 -74.0842 327° Northwest 127 146 6,900 420 Climbing Boston Center
02:50PM 43.1531 -74.1108 328° Northwest 138 159 7,300 420 Climbing Boston Center
02:51PM 43.1858 -74.1400 327° Northwest 138 159 7,800 300 Climbing Boston Center
02:52PM 43.2147 -74.1636 329° Northwest 138 159 8,000 60 Climbing Boston Center
02:53PM 43.2539 -74.1989 327° Northwest 143 165 8,000  Level Boston Center
02:54PM 43.2889 -74.2286 328° Northwest 149 171 8,000  Level Boston Center
02:55PM 43.3300 -74.2639 328° Northwest 160 184 8,000  Level Boston Center
02:56PM 43.3669 -74.2936 330° Northwest 168 193 8,000  Level Boston Center
02:57PM 43.4100 -74.3322 327° Northwest 168 193 8,000  Level Boston Center
02:58PM 43.4469 -74.3647 327° Northwest 163 188 8,000  Level Boston Center
02:59PM 43.4839 -74.3975 327° Northwest 163 188 8,000  Level Boston Center
03:00PM 43.5189 -74.4272 328° Northwest 158 182 8,000  Level Boston Center
03:01PM 43.5558 -74.4569 330° Northwest 158 182 8,000  Level Boston Center
03:02PM 43.5928 -74.4897 327° Northwest 152 175 8,000  Level Boston Center
03:03PM 43.6339 -74.5256 328° Northwest 152 175 8,000  Level Boston Center
03:04PM 43.6689 -74.5556 328° Northwest 152 175 8,000  Level Boston Center
03:05PM 43.7119 -74.5944 327° Northwest 152 175 8,000  Level Boston Center
03:06PM 43.7467 -74.6272 326° Northwest 152 175 8,000  Level Boston Center
03:07PM 43.7836 -74.6572 330° Northwest 152 175 8,000  Level Boston Center
03:08PM 43.8206 -74.6903 327° Northwest 152 175 8,000  Level Boston Center
03:09PM 43.8572 -74.7206 329° Northwest 152 175 8,000  Level Boston Center
03:10PM 43.8922 -74.7536 326° Northwest 152 175 8,000  Level Boston Center
03:11PM 43.9269 -74.7836 328° Northwest 152 175 8,000  Level Boston Center
03:12PM 43.9639 -74.8169 327° Northwest 152 175 8,000  Level Boston Center
03:13PM 44.0006 -74.8500 327° Northwest 152 175 8,000  Level Boston Center
03:14PM 44.0375 -74.8806 329° Northwest 152 175 8,000  Level Boston Center
03:15PM 44.0661 -74.9047 329° Northwest 152 175 8,000 -180 Level Boston Center
03:16PM 44.1111 -74.9472 326° Northwest 152 175 7,700 -360 Descending Boston Center
03:17PM 44.1519 -74.9806 330° Northwest 157 181 7,300 -420 Descending Boston Center
03:18PM 44.1928 -75.0200 325° Northwest 170 196 6,900 -480 Descending Boston Center
03:19PM 44.2358 -75.0539 331° Northwest 170 196 6,400 -480 Descending Boston Center
03:20PM 44.2764 -75.0961 323° Northwest 170 196 6,000 -480 Descending Boston Center
03:21PM 44.3194 -75.1300 331° Northwest 170 196 5,500 -540 Descending Boston Center
03:23PM 44.3539 -75.1677 322° Northwest  Level FlightAware Approximate